sensor_id;sensor_type;location;lat;lon;timestamp;pressure;altitude;pressure_sealevel;temperature;humidity
77321;BME280;66382;52.252;8.780;2023-05-01T00:00:11;100917.34;;;9.55;49.04
77321;BME280;66382;52.252;8.780;2023-05-01T00:02:37;100913.53;;;9.50;49.15
77321;BME280;66382;52.252;8.780;2023-05-01T00:05:05;100909.00;;;9.42;49.36
77321;BME280;66382;52.252;8.780;2023-05-01T00:07:30;100901.19;;;9.32;49.45
77321;BME280;66382;52.252;8.780;2023-05-01T00:09:56;100905.56;;;9.25;49.79
77321;BME280;66382;52.252;8.780;2023-05-01T00:12:22;100907.25;;;9.18;50.78
77321;BME280;66382;52.252;8.780;2023-05-01T00:14:48;100899.03;;;9.11;50.22
77321;BME280;66382;52.252;8.780;2023-05-01T00:17:13;100885.84;;;9.01;51.09
77321;BME280;66382;52.252;8.780;2023-05-01T00:19:39;100903.75;;;9.01;50.62
77321;BME280;66382;52.252;8.780;2023-05-01T00:22:06;100895.03;;;8.99;51.15
77321;BME280;66382;52.252;8.780;2023-05-01T00:24:32;100895.88;;;8.99;51.04
77321;BME280;66382;52.252;8.780;2023-05-01T00:26:58;100888.88;;;8.98;50.68
77321;BME280;66382;52.252;8.780;2023-05-01T00:29:24;100888.03;;;8.98;51.30
77321;BME280;66382;52.252;8.780;2023-05-01T00:31:49;100895.03;;;8.99;50.20
77321;BME280;66382;52.252;8.780;2023-05-01T00:34:15;100883.34;;;9.00;50.67
77321;BME280;66382;52.252;8.780;2023-05-01T00:36:41;100879.84;;;8.99;50.14
77321;BME280;66382;52.252;8.780;2023-05-01T00:39:08;100888.53;;;9.01;50.58
77321;BME280;66382;52.252;8.780;2023-05-01T00:41:34;100877.81;;;9.01;50.58
77321;BME280;66382;52.252;8.780;2023-05-01T00:43:59;100873.97;;;9.04;49.97
77321;BME280;66382;52.252;8.780;2023-05-01T00:46:25;100876.50;;;9.06;50.33
77321;BME280;66382;52.252;8.780;2023-05-01T00:48:52;100868.28;;;9.07;50.33
77321;BME280;66382;52.252;8.780;2023-05-01T00:51:20;100863.94;;;9.06;49.60
77321;BME280;66382;52.252;8.780;2023-05-01T00:53:45;100864.09;;;9.04;49.86
77321;BME280;66382;52.252;8.780;2023-05-01T00:56:13;100863.13;;;9.06;50.48
77321;BME280;66382;52.252;8.780;2023-05-01T00:58:39;100861.63;;;9.03;50.41
77321;BME280;66382;52.252;8.780;2023-05-01T01:01:05;100865.28;;;9.02;49.53
77321;BME280;66382;52.252;8.780;2023-05-01T01:03:31;100851.91;;;9.02;50.06
77321;BME280;66382;52.252;8.780;2023-05-01T01:06:08;100853.28;;;8.98;49.75
77321;BME280;66382;52.252;8.780;2023-05-01T01:08:39;100855.28;;;8.96;50.15
77321;BME280;66382;52.252;8.780;2023-05-01T01:11:16;100853.78;;;8.93;50.04
77321;BME280;66382;52.252;8.780;2023-05-01T01:13:57;100845.25;;;8.90;50.39
77321;BME280;66382;52.252;8.780;2023-05-01T01:16:28;100845.44;;;8.88;50.34
77321;BME280;66382;52.252;8.780;2023-05-01T01:19:01;100843.75;;;8.95;50.42
77321;BME280;66382;52.252;8.780;2023-05-01T01:21:34;100834.22;;;8.93;50.20
77321;BME280;66382;52.252;8.780;2023-05-01T01:24:15;100847.59;;;8.93;50.28
77321;BME280;66382;52.252;8.780;2023-05-01T01:27:19;100834.53;;;8.90;50.29
77321;BME280;66382;52.252;8.780;2023-05-01T01:29:55;100817.69;;;8.89;50.30
77321;BME280;66382;52.252;8.780;2023-05-01T01:35:32;100821.38;;;8.88;50.37
77321;BME280;66382;52.252;8.780;2023-05-01T01:38:02;100825.03;;;8.87;49.56
77321;BME280;66382;52.252;8.780;2023-05-01T01:40:34;100826.03;;;8.86;49.89
77321;BME280;66382;52.252;8.780;2023-05-01T01:43:03;100804.84;;;8.76;50.87
77321;BME280;66382;52.252;8.780;2023-05-01T01:45:34;100811.53;;;8.80;50.19
77321;BME280;66382;52.252;8.780;2023-05-01T01:48:02;100808.00;;;8.80;50.33
77321;BME280;66382;52.252;8.780;2023-05-01T01:50:31;100802.50;;;8.81;50.49
77321;BME280;66382;52.252;8.780;2023-05-01T01:53:01;100795.97;;;8.84;50.24
77321;BME280;66382;52.252;8.780;2023-05-01T01:55:30;100803.97;;;8.84;50.84
77321;BME280;66382;52.252;8.780;2023-05-01T01:57:58;100798.97;;;8.81;50.64
77321;BME280;66382;52.252;8.780;2023-05-01T02:00:27;100792.28;;;8.77;50.26
77321;BME280;66382;52.252;8.780;2023-05-01T02:02:54;100792.66;;;8.74;50.50
77321;BME280;66382;52.252;8.780;2023-05-01T02:05:24;100792.47;;;8.67;49.83
77321;BME280;66382;52.252;8.780;2023-05-01T02:07:53;100780.63;;;8.61;50.84
77321;BME280;66382;52.252;8.780;2023-05-01T02:10:21;100777.31;;;8.51;50.68
77321;BME280;66382;52.252;8.780;2023-05-01T02:12:50;100779.78;;;8.53;51.12
77321;BME280;66382;52.252;8.780;2023-05-01T02:15:17;100782.47;;;8.53;50.76
77321;BME280;66382;52.252;8.780;2023-05-01T02:17:43;100775.63;;;8.50;51.22
77321;BME280;66382;52.252;8.780;2023-05-01T02:20:10;100778.47;;;8.49;51.49
77321;BME280;66382;52.252;8.780;2023-05-01T02:22:37;100779.97;;;8.43;51.64
77321;BME280;66382;52.252;8.780;2023-05-01T02:25:06;100782.00;;;8.41;51.83
77321;BME280;66382;52.252;8.780;2023-05-01T02:27:35;100773.97;;;8.41;51.04
77321;BME280;66382;52.252;8.780;2023-05-01T02:30:03;100767.94;;;8.31;51.74
77321;BME280;66382;52.252;8.780;2023-05-01T02:32:29;100778.25;;;8.26;52.48
77321;BME280;66382;52.252;8.780;2023-05-01T02:34:54;100767.25;;;8.21;51.94
77321;BME280;66382;52.252;8.780;2023-05-01T02:37:20;100755.75;;;8.12;52.55
77321;BME280;66382;52.252;8.780;2023-05-01T02:39:46;100759.41;;;8.11;53.09
77321;BME280;66382;52.252;8.780;2023-05-01T02:42:15;100759.06;;;8.06;52.51
77321;BME280;66382;52.252;8.780;2023-05-01T02:44:46;100753.06;;;8.04;51.89
77321;BME280;66382;52.252;8.780;2023-05-01T02:47:16;100750.06;;;8.07;52.13
77321;BME280;66382;52.252;8.780;2023-05-01T02:49:45;100741.88;;;8.08;52.52
77321;BME280;66382;52.252;8.780;2023-05-01T02:52:11;100721.53;;;7.99;51.28
77321;BME280;66382;52.252;8.780;2023-05-01T02:54:37;100738.56;;;8.14;51.42
77321;BME280;66382;52.252;8.780;2023-05-01T02:57:03;100739.72;;;8.20;51.51
77321;BME280;66382;52.252;8.780;2023-05-01T02:59:30;100731.03;;;8.18;51.05
77321;BME280;66382;52.252;8.780;2023-05-01T03:01:56;100732.69;;;8.27;50.56
77321;BME280;66382;52.252;8.780;2023-05-01T03:04:22;100732.34;;;8.30;50.40
77321;BME280;66382;52.252;8.780;2023-05-01T03:06:47;100723.84;;;8.35;51.48
77321;BME280;66382;52.252;8.780;2023-05-01T03:09:13;100724.50;;;8.37;51.62
77321;BME280;66382;52.252;8.780;2023-05-01T03:11:39;100710.31;;;8.36;51.25
77321;BME280;66382;52.252;8.780;2023-05-01T03:14:04;100716.69;;;8.44;50.46
77321;BME280;66382;52.252;8.780;2023-05-01T03:16:32;100714.03;;;8.44;51.29
77321;BME280;66382;52.252;8.780;2023-05-01T03:18:57;100717.38;;;8.46;50.42
77321;BME280;66382;52.252;8.780;2023-05-01T03:21:23;100704.84;;;8.46;50.69
77321;BME280;66382;52.252;8.780;2023-05-01T03:23:49;100710.19;;;8.46;50.46
77321;BME280;66382;52.252;8.780;2023-05-01T03:26:14;100707.50;;;8.46;50.97
77321;BME280;66382;52.252;8.780;2023-05-01T03:28:40;100697.31;;;8.42;51.28
77321;BME280;66382;52.252;8.780;2023-05-01T03:31:06;100688.13;;;8.44;50.89
77321;BME280;66382;52.252;8.780;2023-05-01T03:33:33;100687.47;;;8.42;50.96
77321;BME280;66382;52.252;8.780;2023-05-01T03:35:59;100689.31;;;8.42;50.75
77321;BME280;66382;52.252;8.780;2023-05-01T03:38:25;100685.28;;;8.37;50.23
77321;BME280;66382;52.252;8.780;2023-05-01T03:40:51;100686.63;;;8.33;51.00
77321;BME280;66382;52.252;8.780;2023-05-01T03:43:16;100679.78;;;8.31;50.86
77321;BME280;66382;52.252;8.780;2023-05-01T03:45:42;100683.59;;;8.28;50.44
77321;BME280;66382;52.252;8.780;2023-05-01T03:48:08;100689.13;;;8.27;49.98
77321;BME280;66382;52.252;8.780;2023-05-01T03:50:35;100675.25;;;8.23;51.18
77321;BME280;66382;52.252;8.780;2023-05-01T03:53:01;100682.44;;;8.23;51.52
77321;BME280;66382;52.252;8.780;2023-05-01T03:55:26;100679.78;;;8.23;50.40
77321;BME280;66382;52.252;8.780;2023-05-01T03:57:52;100675.47;;;8.22;50.80
77321;BME280;66382;52.252;8.780;2023-05-01T04:00:18;100667.44;;;8.22;51.11
77321;BME280;66382;52.252;8.780;2023-05-01T04:02:43;100669.78;;;8.25;52.65
77321;BME280;66382;52.252;8.780;2023-05-01T04:05:09;100658.94;;;8.26;52.51
77321;BME280;66382;52.252;8.780;2023-05-01T04:07:36;100667.78;;;8.27;51.86
77321;BME280;66382;52.252;8.780;2023-05-01T04:10:02;100667.25;;;8.23;51.33
77321;BME280;66382;52.252;8.780;2023-05-01T04:12:28;100664.78;;;8.22;53.11
77321;BME280;66382;52.252;8.780;2023-05-01T04:14:53;100665.75;;;8.21;52.23
77321;BME280;66382;52.252;8.780;2023-05-01T04:17:19;100669.59;;;8.18;52.05
77321;BME280;66382;52.252;8.780;2023-05-01T04:19:45;100661.59;;;8.18;51.78
77321;BME280;66382;52.252;8.780;2023-05-01T04:22:10;100662.44;;;8.18;50.94
77321;BME280;66382;52.252;8.780;2023-05-01T04:24:37;100664.09;;;8.19;50.74
77321;BME280;66382;52.252;8.780;2023-05-01T04:27:03;100664.09;;;8.19;50.97
77321;BME280;66382;52.252;8.780;2023-05-01T04:29:29;100656.25;;;8.18;50.85
77321;BME280;66382;52.252;8.780;2023-05-01T04:31:54;100660.75;;;8.17;51.41
77321;BME280;66382;52.252;8.780;2023-05-01T04:34:20;100640.75;;;8.05;50.84
77321;BME280;66382;52.252;8.780;2023-05-01T04:36:46;100655.25;;;8.11;50.91
77321;BME280;66382;52.252;8.780;2023-05-01T04:39:11;100649.44;;;8.07;51.79
77321;BME280;66382;52.252;8.780;2023-05-01T04:41:38;100645.25;;;8.05;50.93
77321;BME280;66382;52.252;8.780;2023-05-01T04:44:04;100640.94;;;8.04;52.07
77321;BME280;66382;52.252;8.780;2023-05-01T04:46:30;100642.44;;;8.06;51.40
77321;BME280;66382;52.252;8.780;2023-05-01T04:48:56;100649.78;;;8.04;51.67
77321;BME280;66382;52.252;8.780;2023-05-01T04:51:21;100637.72;;;8.08;52.22
77321;BME280;66382;52.252;8.780;2023-05-01T04:53:47;100648.09;;;8.11;51.61
77321;BME280;66382;52.252;8.780;2023-05-01T04:56:13;100643.09;;;8.16;51.28
77321;BME280;66382;52.252;8.780;2023-05-01T04:58:40;100643.41;;;8.22;51.29
77321;BME280;66382;52.252;8.780;2023-05-01T05:01:05;100642.03;;;8.26;51.88
77321;BME280;66382;52.252;8.780;2023-05-01T05:03:31;100636.38;;;8.29;51.34
77321;BME280;66382;52.252;8.780;2023-05-01T05:05:57;100630.84;;;8.30;51.48
77321;BME280;66382;52.252;8.780;2023-05-01T05:08:22;100636.72;;;8.34;51.97
77321;BME280;66382;52.252;8.780;2023-05-01T05:10:48;100640.88;;;8.36;52.34
77321;BME280;66382;52.252;8.780;2023-05-01T05:13:14;100642.06;;;8.42;51.88
77321;BME280;66382;52.252;8.780;2023-05-01T05:15:41;100636.19;;;8.47;52.16
77321;BME280;66382;52.252;8.780;2023-05-01T05:18:07;100636.50;;;8.52;51.73
77321;BME280;66382;52.252;8.780;2023-05-01T05:20:37;100613.69;;;8.41;51.62
77321;BME280;66382;52.252;8.780;2023-05-01T05:23:02;100631.78;;;8.62;52.13
77321;BME280;66382;52.252;8.780;2023-05-01T05:25:28;100618.13;;;8.57;51.86
77321;BME280;66382;52.252;8.780;2023-05-01T05:27:54;100638.44;;;8.74;52.13
77321;BME280;66382;52.252;8.780;2023-05-01T05:30:19;100642.25;;;8.80;52.39
77321;BME280;66382;52.252;8.780;2023-05-01T05:32:46;100633.72;;;8.85;51.61
77321;BME280;66382;52.252;8.780;2023-05-01T05:35:12;100640.03;;;8.92;51.95
77321;BME280;66382;52.252;8.780;2023-05-01T05:37:38;100641.38;;;8.96;51.87
77321;BME280;66382;52.252;8.780;2023-05-01T05:40:05;100632.16;;;8.98;52.38
77321;BME280;66382;52.252;8.780;2023-05-01T05:42:30;100635.13;;;9.03;52.57
77321;BME280;66382;52.252;8.780;2023-05-01T05:44:56;100629.06;;;9.10;52.05
77321;BME280;66382;52.252;8.780;2023-05-01T05:47:22;100622.69;;;9.19;52.37
77321;BME280;66382;52.252;8.780;2023-05-01T05:49:49;100627.13;;;9.26;52.29
77321;BME280;66382;52.252;8.780;2023-05-01T05:52:14;100606.94;;;9.24;51.82
77321;BME280;66382;52.252;8.780;2023-05-01T05:54:40;100621.19;;;9.39;51.91
77321;BME280;66382;52.252;8.780;2023-05-01T05:57:06;100616.81;;;9.46;51.76
77321;BME280;66382;52.252;8.780;2023-05-01T05:59:31;100621.75;;;9.58;51.69
77321;BME280;66382;52.252;8.780;2023-05-01T06:01:57;100609.47;;;9.63;51.57
77321;BME280;66382;52.252;8.780;2023-05-01T06:04:23;100618.59;;;9.77;51.55
77321;BME280;66382;52.252;8.780;2023-05-01T06:06:50;100614.34;;;9.83;51.53
77321;BME280;66382;52.252;8.780;2023-05-01T06:09:16;100617.47;;;9.86;51.05
77321;BME280;66382;52.252;8.780;2023-05-01T06:11:42;100616.94;;;9.91;51.25
77321;BME280;66382;52.252;8.780;2023-05-01T06:14:08;100619.91;;;9.96;51.53
77321;BME280;66382;52.252;8.780;2023-05-01T06:16:33;100615.69;;;10.02;51.67
77321;BME280;66382;52.252;8.780;2023-05-01T06:18:59;100611.63;;;10.06;51.90
77321;BME280;66382;52.252;8.780;2023-05-01T06:21:26;100614.84;;;10.16;51.42
77321;BME280;66382;52.252;8.780;2023-05-01T06:23:53;100616.16;;;10.20;51.15
77321;BME280;66382;52.252;8.780;2023-05-01T06:26:19;100608.78;;;10.22;51.14
77321;BME280;66382;52.252;8.780;2023-05-01T06:28:44;100611.66;;;10.36;51.55
77321;BME280;66382;52.252;8.780;2023-05-01T06:31:10;100606.50;;;10.34;51.33
77321;BME280;66382;52.252;8.780;2023-05-01T06:33:36;100609.75;;;10.44;50.69
77321;BME280;66382;52.252;8.780;2023-05-01T06:36:02;100603.00;;;10.48;51.31
77321;BME280;66382;52.252;8.780;2023-05-01T06:38:27;100606.69;;;10.62;51.28
77321;BME280;66382;52.252;8.780;2023-05-01T06:40:55;100603.72;;;10.72;51.25
77321;BME280;66382;52.252;8.780;2023-05-01T06:43:20;100603.44;;;10.82;50.54
77321;BME280;66382;52.252;8.780;2023-05-01T06:45:46;100580.94;;;10.83;51.57
77321;BME280;66382;52.252;8.780;2023-05-01T06:48:12;100599.50;;;10.99;50.62
77321;BME280;66382;52.252;8.780;2023-05-01T06:50:37;100599.03;;;11.10;52.36
77321;BME280;66382;52.252;8.780;2023-05-01T06:53:03;100593.78;;;11.24;50.86
77321;BME280;66382;52.252;8.780;2023-05-01T06:55:29;100603.75;;;11.30;50.06
77321;BME280;66382;52.252;8.780;2023-05-01T06:57:56;100591.69;;;11.40;51.92
77321;BME280;66382;52.252;8.780;2023-05-01T07:00:22;100589.75;;;11.56;50.67
77321;BME280;66382;52.252;8.780;2023-05-01T07:02:47;100593.41;;;11.70;49.90
77321;BME280;66382;52.252;8.780;2023-05-01T07:05:13;100591.84;;;11.82;51.46
77321;BME280;66382;52.252;8.780;2023-05-01T07:07:39;100584.31;;;11.92;50.53
77321;BME280;66382;52.252;8.780;2023-05-01T07:10:05;100582.31;;;12.01;49.94
77321;BME280;66382;52.252;8.780;2023-05-01T07:12:31;100572.44;;;12.08;49.39
77321;BME280;66382;52.252;8.780;2023-05-01T07:14:58;100578.72;;;12.22;50.69
77321;BME280;66382;52.252;8.780;2023-05-01T07:17:24;100572.00;;;12.39;50.84
77321;BME280;66382;52.252;8.780;2023-05-01T07:19:50;100570.06;;;12.68;50.96
77321;BME280;66382;52.252;8.780;2023-05-01T07:22:15;100571.59;;;12.90;51.11
77321;BME280;66382;52.252;8.780;2023-05-01T07:24:41;100571.22;;;13.07;49.81
77321;BME280;66382;52.252;8.780;2023-05-01T07:27:07;100579.09;;;13.15;50.01
77321;BME280;66382;52.252;8.780;2023-05-01T07:29:34;100572.09;;;13.21;50.38
77321;BME280;66382;52.252;8.780;2023-05-01T07:32:01;100571.75;;;13.30;48.70
77321;BME280;66382;52.252;8.780;2023-05-01T07:34:27;100568.41;;;13.35;49.75
77321;BME280;66382;52.252;8.780;2023-05-01T07:36:53;100565.97;;;13.40;48.31
77321;BME280;66382;52.252;8.780;2023-05-01T07:39:18;100557.22;;;13.45;49.77
77321;BME280;66382;52.252;8.780;2023-05-01T07:41:44;100569.88;;;13.64;49.18
77321;BME280;66382;52.252;8.780;2023-05-01T07:44:10;100573.84;;;13.75;48.01
77321;BME280;66382;52.252;8.780;2023-05-01T07:46:36;100567.63;;;13.88;48.82
77321;BME280;66382;52.252;8.780;2023-05-01T07:49:03;100559.28;;;14.09;48.96
77321;BME280;66382;52.252;8.780;2023-05-01T07:51:28;100567.13;;;14.31;48.68
77321;BME280;66382;52.252;8.780;2023-05-01T07:53:54;100564.56;;;14.56;49.93
77321;BME280;66382;52.252;8.780;2023-05-01T07:56:20;100556.53;;;14.94;49.56
77321;BME280;66382;52.252;8.780;2023-05-01T07:58:45;100550.94;;;15.53;49.51
77321;BME280;66382;52.252;8.780;2023-05-01T08:01:11;100549.22;;;16.27;48.63
77321;BME280;66382;52.252;8.780;2023-05-01T08:03:37;100534.50;;;16.78;50.34
77321;BME280;66382;52.252;8.780;2023-05-01T08:06:04;100545.41;;;17.32;49.00
77321;BME280;66382;52.252;8.780;2023-05-01T08:08:30;100548.78;;;17.69;48.63
77321;BME280;66382;52.252;8.780;2023-05-01T08:10:56;100549.88;;;18.15;49.86
77321;BME280;66382;52.252;8.780;2023-05-01T08:13:22;100540.06;;;18.66;47.63
77321;BME280;66382;52.252;8.780;2023-05-01T08:15:48;100540.06;;;18.78;39.85
77321;BME280;66382;52.252;8.780;2023-05-01T08:18:13;100543.47;;;18.85;44.93
77321;BME280;66382;52.252;8.780;2023-05-01T08:20:39;100540.94;;;19.24;48.97
77321;BME280;66382;52.252;8.780;2023-05-01T08:23:06;100541.69;;;19.70;46.84
77321;BME280;66382;52.252;8.780;2023-05-01T08:25:32;100547.94;;;20.05;47.44
77321;BME280;66382;52.252;8.780;2023-05-01T08:27:57;100533.66;;;20.36;47.11
77321;BME280;66382;52.252;8.780;2023-05-01T08:30:23;100539.91;;;20.76;42.67
77321;BME280;66382;52.252;8.780;2023-05-01T08:32:49;100528.16;;;20.97;44.49
77321;BME280;66382;52.252;8.780;2023-05-01T08:35:15;100535.88;;;21.38;46.21
77321;BME280;66382;52.252;8.780;2023-05-01T08:37:40;100534.28;;;21.74;45.59
77321;BME280;66382;52.252;8.780;2023-05-01T08:40:08;100528.75;;;22.01;46.94
77321;BME280;66382;52.252;8.780;2023-05-01T08:42:35;100525.34;;;22.26;44.29
77321;BME280;66382;52.252;8.780;2023-05-01T08:45:02;100522.44;;;22.48;45.20
77321;BME280;66382;52.252;8.780;2023-05-01T08:47:28;100530.44;;;22.65;42.55
77321;BME280;66382;52.252;8.780;2023-05-01T08:49:54;100533.47;;;22.84;43.48
77321;BME280;66382;52.252;8.780;2023-05-01T08:52:22;100522.34;;;23.16;43.83
77321;BME280;66382;52.252;8.780;2023-05-01T08:54:49;100525.66;;;23.29;43.06
77321;BME280;66382;52.252;8.780;2023-05-01T08:57:18;100524.03;;;23.28;43.60
77321;BME280;66382;52.252;8.780;2023-05-01T08:59:47;100521.28;;;23.23;45.01
77321;BME280;66382;52.252;8.780;2023-05-01T09:02:14;100517.44;;;23.13;44.62
77321;BME280;66382;52.252;8.780;2023-05-01T09:04:40;100513.59;;;23.09;43.93
77321;BME280;66382;52.252;8.780;2023-05-01T09:07:06;100514.44;;;23.15;41.65
77321;BME280;66382;52.252;8.780;2023-05-01T09:20:54;100504.56;;;23.09;40.02
77321;BME280;66382;52.252;8.780;2023-05-01T09:23:20;100507.06;;;23.05;41.15
77321;BME280;66382;52.252;8.780;2023-05-01T09:25:46;100502.66;;;23.04;40.85
77321;BME280;66382;52.252;8.780;2023-05-01T09:28:11;100496.34;;;22.93;41.84
77321;BME280;66382;52.252;8.780;2023-05-01T09:30:38;100498.81;;;22.95;41.37
77321;BME280;66382;52.252;8.780;2023-05-01T09:33:08;100502.94;;;23.08;42.63
77321;BME280;66382;52.252;8.780;2023-05-01T09:35:50;100501.84;;;23.14;43.94
77321;BME280;66382;52.252;8.780;2023-05-01T09:38:20;100498.28;;;23.29;43.21
77321;BME280;66382;52.252;8.780;2023-05-01T09:40:46;100500.50;;;23.37;41.12
77321;BME280;66382;52.252;8.780;2023-05-01T09:43:12;100495.84;;;23.48;41.98
77321;BME280;66382;52.252;8.780;2023-05-01T09:45:37;100488.72;;;23.67;40.96
77321;BME280;66382;52.252;8.780;2023-05-01T09:48:07;100489.78;;;23.61;42.27
77321;BME280;66382;52.252;8.780;2023-05-01T09:50:33;100487.66;;;23.37;39.31
77321;BME280;66382;52.252;8.780;2023-05-01T09:53:03;100488.47;;;23.17;39.86
77321;BME280;66382;52.252;8.780;2023-05-01T09:55:31;100475.31;;;23.14;41.28
77321;BME280;66382;52.252;8.780;2023-05-01T09:58:25;100484.06;;;23.16;42.68
77321;BME280;66382;52.252;8.780;2023-05-01T10:00:51;100487.63;;;23.12;40.77
77321;BME280;66382;52.252;8.780;2023-05-01T10:03:17;100479.97;;;23.29;40.60
77321;BME280;66382;52.252;8.780;2023-05-01T10:05:43;100481.06;;;23.49;41.17
77321;BME280;66382;52.252;8.780;2023-05-01T10:08:09;100470.94;;;23.65;40.29
77321;BME280;66382;52.252;8.780;2023-05-01T10:10:36;100467.34;;;23.90;41.24
77321;BME280;66382;52.252;8.780;2023-05-01T10:13:12;100470.00;;;24.05;42.82
77321;BME280;66382;52.252;8.780;2023-05-01T10:15:38;100470.13;;;24.44;41.02
77321;BME280;66382;52.252;8.780;2023-05-01T10:18:04;100470.03;;;24.65;40.38
77321;BME280;66382;52.252;8.780;2023-05-01T10:20:30;100474.41;;;24.71;38.96
77321;BME280;66382;52.252;8.780;2023-05-01T10:22:56;100463.16;;;24.67;37.45
77321;BME280;66382;52.252;8.780;2023-05-01T10:25:24;100467.94;;;24.52;38.23
77321;BME280;66382;52.252;8.780;2023-05-01T10:27:54;100466.03;;;24.42;38.54
77321;BME280;66382;52.252;8.780;2023-05-01T10:30:20;100467.69;;;24.38;38.12
77321;BME280;66382;52.252;8.780;2023-05-01T10:32:46;100464.72;;;24.29;37.80
77321;BME280;66382;52.252;8.780;2023-05-01T10:35:17;100466.72;;;24.03;35.97
77321;BME280;66382;52.252;8.780;2023-05-01T10:37:46;100462.72;;;23.75;37.46
77321;BME280;66382;52.252;8.780;2023-05-01T10:43:18;100461.38;;;23.31;38.87
77321;BME280;66382;52.252;8.780;2023-05-01T10:45:45;100455.66;;;23.23;37.61
77321;BME280;66382;52.252;8.780;2023-05-01T10:48:11;100442.50;;;23.09;38.32
77321;BME280;66382;52.252;8.780;2023-05-01T10:51:07;100454.53;;;23.08;39.29
77321;BME280;66382;52.252;8.780;2023-05-01T10:53:33;100450.13;;;22.87;38.31
77321;BME280;66382;52.252;8.780;2023-05-01T10:55:58;100450.34;;;22.70;38.02
77321;BME280;66382;52.252;8.780;2023-05-01T10:58:55;100448.69;;;22.53;39.78
77321;BME280;66382;52.252;8.780;2023-05-01T11:01:32;100422.41;;;22.27;38.20
77321;BME280;66382;52.252;8.780;2023-05-01T11:03:59;100434.31;;;22.10;36.56
77321;BME280;66382;52.252;8.780;2023-05-01T11:06:25;100433.97;;;21.92;36.12
77321;BME280;66382;52.252;8.780;2023-05-01T11:08:51;100427.56;;;21.71;38.20
77321;BME280;66382;52.252;8.780;2023-05-01T11:11:45;100425.16;;;21.74;40.00
77321;BME280;66382;52.252;8.780;2023-05-01T11:14:12;100420.22;;;21.71;38.35
77321;BME280;66382;52.252;8.780;2023-05-01T11:16:42;100422.66;;;21.73;39.25
77321;BME280;66382;52.252;8.780;2023-05-01T11:19:09;100425.72;;;21.76;38.99
77321;BME280;66382;52.252;8.780;2023-05-01T11:21:36;100420.22;;;21.71;37.96
77321;BME280;66382;52.252;8.780;2023-05-01T11:24:03;100421.28;;;21.65;37.50
77321;BME280;66382;52.252;8.780;2023-05-01T11:26:29;100419.81;;;21.47;35.71
77321;BME280;66382;52.252;8.780;2023-05-01T11:28:58;100403.78;;;21.23;38.15
77321;BME280;66382;52.252;8.780;2023-05-01T11:31:26;100402.88;;;21.13;39.08
77321;BME280;66382;52.252;8.780;2023-05-01T11:33:55;100409.22;;;21.23;39.38
77321;BME280;66382;52.252;8.780;2023-05-01T11:36:20;100403.81;;;21.29;39.29
77321;BME280;66382;52.252;8.780;2023-05-01T11:38:49;100385.25;;;21.25;39.58
77321;BME280;66382;52.252;8.780;2023-05-01T11:41:18;100392.09;;;21.28;39.82
77321;BME280;66382;52.252;8.780;2023-05-01T11:43:48;100390.75;;;21.31;39.94
77321;BME280;66382;52.252;8.780;2023-05-01T11:46:22;100388.03;;;21.36;40.15
77321;BME280;66382;52.252;8.780;2023-05-01T11:48:50;100386.97;;;21.37;39.55
77321;BME280;66382;52.252;8.780;2023-05-01T11:51:15;100394.31;;;21.36;38.97
77321;BME280;66382;52.252;8.780;2023-05-01T11:53:41;100381.78;;;21.35;39.40
77321;BME280;66382;52.252;8.780;2023-05-01T11:56:18;100382.03;;;21.34;40.07
77321;BME280;66382;52.252;8.780;2023-05-01T11:58:43;100381.50;;;21.32;38.72
77321;BME280;66382;52.252;8.780;2023-05-01T12:01:09;100369.44;;;21.22;40.10
77321;BME280;66382;52.252;8.780;2023-05-01T12:03:41;100376.28;;;21.30;39.26
77321;BME280;66382;52.252;8.780;2023-05-01T12:06:10;100376.03;;;21.32;39.58
77321;BME280;66382;52.252;8.780;2023-05-01T12:08:36;100379.06;;;21.35;38.33
77321;BME280;66382;52.252;8.780;2023-05-01T12:11:02;100382.94;;;21.39;38.68
77321;BME280;66382;52.252;8.780;2023-05-01T12:13:28;100377.75;;;21.43;38.46
77321;BME280;66382;52.252;8.780;2023-05-01T12:15:54;100373.59;;;21.35;37.05
77321;BME280;66382;52.252;8.780;2023-05-01T12:18:20;100386.13;;;21.36;38.71
77321;BME280;66382;52.252;8.780;2023-05-01T12:20:48;100382.59;;;21.36;38.67
77321;BME280;66382;52.252;8.780;2023-05-01T12:23:15;100371.69;;;21.36;39.34
77321;BME280;66382;52.252;8.780;2023-05-01T12:25:42;100373.81;;;21.29;39.74
77321;BME280;66382;52.252;8.780;2023-05-01T12:28:09;100371.34;;;21.22;38.55
77321;BME280;66382;52.252;8.780;2023-05-01T12:30:35;100381.66;;;21.15;38.36
77321;BME280;66382;52.252;8.780;2023-05-01T12:33:07;100378.94;;;21.15;39.59
77321;BME280;66382;52.252;8.780;2023-05-01T12:35:33;100376.50;;;21.23;38.36
77321;BME280;66382;52.252;8.780;2023-05-01T12:38:00;100372.22;;;21.33;37.50
77321;BME280;66382;52.252;8.780;2023-05-01T12:40:35;100366.22;;;21.36;39.13
77321;BME280;66382;52.252;8.780;2023-05-01T12:43:01;100372.03;;;21.39;38.99
77321;BME280;66382;52.252;8.780;2023-05-01T12:45:26;100372.59;;;21.41;38.28
77321;BME280;66382;52.252;8.780;2023-05-01T12:47:52;100359.44;;;21.38;38.88
77321;BME280;66382;52.252;8.780;2023-05-01T12:50:18;100363.59;;;21.46;39.51
77321;BME280;66382;52.252;8.780;2023-05-01T12:52:44;100357.03;;;21.42;39.84
77321;BME280;66382;52.252;8.780;2023-05-01T12:55:10;100357.53;;;21.39;38.95
77321;BME280;66382;52.252;8.780;2023-05-01T12:57:50;100358.88;;;21.36;39.98
77321;BME280;66382;52.252;8.780;2023-05-01T13:00:16;100347.13;;;21.31;38.73
77321;BME280;66382;52.252;8.780;2023-05-01T13:02:42;100354.50;;;21.35;38.48
77321;BME280;66382;52.252;8.780;2023-05-01T13:05:10;100351.50;;;21.32;38.60
77321;BME280;66382;52.252;8.780;2023-05-01T13:07:37;100346.31;;;21.30;37.86
77321;BME280;66382;52.252;8.780;2023-05-01T13:10:03;100335.38;;;21.30;37.63
77321;BME280;66382;52.252;8.780;2023-05-01T13:12:29;100347.69;;;21.33;39.23